New Mighty — 3FMN — position and weather

sailwx.info

Track history (hours):
 
Tides and Currents Weather Stations Pressure Air Temp Water Temp Dewpoint Dewpoint Depression Visibility Wind Speed Wind Dir Waves Ship Positions

New Mighty

Last reported at 2017-Aug-14 03:27 UTC. Time now 2017-Sep-26 20:27 UTC.
Position N 01°17' E 104°03'.
Warning: this ship's position is 43 days out of date.

Length 292 m; draft 16.4 m.

Type: Cargo ship. MMSI: 354199000.

Date/timePositionNaut miles runAvg speedWind from/ knotsBaromVisibWave heightAir tempDewpointWater temp
2017-Aug-14 03:27N 01°17' E 104°03'1 1.4
2017-Aug-14 03:00N 01°17' E 104°03'0 0.0
2017-Aug-14 01:02N 01°17' E 104°03'0 0.0
2017-Aug-14 00:47N 01°17' E 104°03'0 0.0
2017-Aug-14 00:17N 01°17' E 104°03'0 0.0
2017-Aug-13 23:50N 01°17' E 104°03'0 0.0
2017-Aug-13 23:11N 01°17' E 104°03'0 0.0
2017-Aug-13 22:53N 01°17' E 104°03'0 0.0
2017-Aug-13 21:38N 01°17' E 104°03'0 0.0
2017-Aug-13 21:14N 01°17' E 104°03'0 0.0
2017-Aug-13 20:50N 01°17' E 104°03'0 0.0
2017-Aug-13 19:20N 01°17' E 104°03'0 0.3
2017-Aug-13 18:56N 01°18' E 104°03'0 0.2
2017-Aug-13 18:26N 01°18' E 104°03'0 0.0
2017-Aug-13 15:47N 01°18' E 104°03'0 0.3
2017-Aug-13 15:20N 01°18' E 104°03'0 0.2
2017-Aug-13 14:56N 01°18' E 104°03'0 0.0
2017-Aug-13 13:05N 01°17' E 104°03'0 0.0
2017-Aug-13 12:59N 01°17' E 104°03'0 0.0
2017-Aug-13 12:15N 01°17' E 104°03'0 0.0
2017-Aug-13 11:24N 01°17' E 104°03'0 0.0
2017-Aug-13 10:18N 01°17' E 104°03'0 0.0
2017-Aug-13 09:48N 01°17' E 104°03'0 0.0
2017-Aug-13 09:30N 01°17' E 104°03'0 0.0
2017-Aug-13 07:33N 01°17' E 104°03'0 0.1
2017-Aug-13 07:30N 01°17' E 104°03'0 0.1
2017-Aug-13 06:12N 01°18' E 104°03'0 0.3
2017-Aug-13 05:57N 01°18' E 104°03'0 0.1
2017-Aug-13 05:03N 01°18' E 104°03'0 0.1
2017-Aug-13 03:42N 01°18' E 104°03'0 0.1
2017-Aug-13 03:29N 01°18' E 104°03'0 0.0
2017-Aug-13 03:00N 01°17' E 104°03'0 0.0
2017-Aug-13 02:30N 01°17' E 104°03'0 0.0
2017-Aug-13 01:59N 01°17' E 104°03'0 0.1
2017-Aug-13 01:26N 01°17' E 104°03'2 3.5
2017-Aug-13 00:59N 01°17' E 104°05'2 4.3
2017-Aug-13 00:29N 01°17' E 104°07'2 3.5
2017-Aug-12 23:58N 01°16' E 104°07'3 4.9
2017-Aug-12 23:27N 01°15' E 104°04'2 4.6
2017-Aug-12 23:00N 01°15' E 104°02'2 4.6
2017-Aug-12 22:29N 01°15' E 103°60'3 5.0
2017-Aug-12 21:59N 01°14' E 103°57'4 7.8
2017-Aug-12 21:30N 01°13' E 103°54'3 6.7
2017-Aug-12 20:59N 01°11' E 103°51'4 7.6
2017-Aug-12 20:30N 01°10' E 103°47'4 8.9
2017-Aug-12 20:00N 01°07' E 103°44'510.2
2017-Aug-12 19:30N 01°04' E 103°40'5 9.8
2017-Aug-12 18:59N 01°05' E 103°35'511.2
2017-Aug-12 18:30N 01°08' E 103°31'510.3
2017-Aug-12 17:59N 01°11' E 103°26'4 8.5
2017-Aug-12 17:30N 01°13' E 103°23'4 8.1
2017-Aug-12 16:58N 01°16' E 103°19'  
Track history (hours):
 
Tides and Currents Weather Stations Pressure Air Temp Water Temp Dewpoint Dewpoint Depression Visibility Wind Speed Wind Dir Waves Ship Positions

New Mighty

Last reported at 2017-Aug-14 03:27 UTC. Time now 2017-Sep-26 20:27 UTC.
Position N 01°17' E 104°03'.
Warning: this ship's position is 43 days out of date.

Length 292 m; draft 16.4 m.

Type: Cargo ship. MMSI: 354199000.

Date/timePositionNaut miles runAvg speedWind from/ knotsBaromVisibWave heightAir tempDewpointWater temp
2017-Aug-14 03:27N 01°17' E 104°03'1 1.4
2017-Aug-14 03:00N 01°17' E 104°03'0 0.0
2017-Aug-14 01:02N 01°17' E 104°03'0 0.0
2017-Aug-14 00:47N 01°17' E 104°03'0 0.0
2017-Aug-14 00:17N 01°17' E 104°03'0 0.0
2017-Aug-13 23:50N 01°17' E 104°03'0 0.0
2017-Aug-13 23:11N 01°17' E 104°03'0 0.0
2017-Aug-13 22:53N 01°17' E 104°03'0 0.0
2017-Aug-13 21:38N 01°17' E 104°03'0 0.0
2017-Aug-13 21:14N 01°17' E 104°03'0 0.0
2017-Aug-13 20:50N 01°17' E 104°03'0 0.0
2017-Aug-13 19:20N 01°17' E 104°03'0 0.3
2017-Aug-13 18:56N 01°18' E 104°03'0 0.2
2017-Aug-13 18:26N 01°18' E 104°03'0 0.0
2017-Aug-13 15:47N 01°18' E 104°03'0 0.3
2017-Aug-13 15:20N 01°18' E 104°03'0 0.2
2017-Aug-13 14:56N 01°18' E 104°03'0 0.0
2017-Aug-13 13:05N 01°17' E 104°03'0 0.0
2017-Aug-13 12:59N 01°17' E 104°03'0 0.0
2017-Aug-13 12:15N 01°17' E 104°03'0 0.0
2017-Aug-13 11:24N 01°17' E 104°03'0 0.0
2017-Aug-13 10:18N 01°17' E 104°03'0 0.0
2017-Aug-13 09:48N 01°17' E 104°03'0 0.0
2017-Aug-13 09:30N 01°17' E 104°03'0 0.0
2017-Aug-13 07:33N 01°17' E 104°03'0 0.1
2017-Aug-13 07:30N 01°17' E 104°03'0 0.1
2017-Aug-13 06:12N 01°18' E 104°03'0 0.3
2017-Aug-13 05:57N 01°18' E 104°03'0 0.1
2017-Aug-13 05:03N 01°18' E 104°03'0 0.1
2017-Aug-13 03:42N 01°18' E 104°03'0 0.1
2017-Aug-13 03:29N 01°18' E 104°03'0 0.0
2017-Aug-13 03:00N 01°17' E 104°03'0 0.0
2017-Aug-13 02:30N 01°17' E 104°03'0 0.0
2017-Aug-13 01:59N 01°17' E 104°03'0 0.1
2017-Aug-13 01:26N 01°17' E 104°03'2 3.5
2017-Aug-13 00:59N 01°17' E 104°05'2 4.3
2017-Aug-13 00:29N 01°17' E 104°07'2 3.5
2017-Aug-12 23:58N 01°16' E 104°07'3 4.9
2017-Aug-12 23:27N 01°15' E 104°04'2 4.6
2017-Aug-12 23:00N 01°15' E 104°02'2 4.6
2017-Aug-12 22:29N 01°15' E 103°60'3 5.0
2017-Aug-12 21:59N 01°14' E 103°57'4 7.8
2017-Aug-12 21:30N 01°13' E 103°54'3 6.7
2017-Aug-12 20:59N 01°11' E 103°51'4 7.6
2017-Aug-12 20:30N 01°10' E 103°47'4 8.9
2017-Aug-12 20:00N 01°07' E 103°44'510.2
2017-Aug-12 19:30N 01°04' E 103°40'5 9.8
2017-Aug-12 18:59N 01°05' E 103°35'511.2
2017-Aug-12 18:30N 01°08' E 103°31'510.3
2017-Aug-12 17:59N 01°11' E 103°26'4 8.5
2017-Aug-12 17:30N 01°13' E 103°23'4 8.1
2017-Aug-12 16:58N 01°16' E 103°19'  

Dump ship's entire track history